createdAt,value
2019-05-11T05:42:25.333Z,10.40
2019-05-11T06:05:15.632Z,10.90
2019-05-11T06:21:30.467Z,11.20
2019-05-11T06:24:10.651Z,11.30
2019-05-11T06:26:49.220Z,11.30
2019-05-11T06:36:23.575Z,11.50
2019-05-11T06:38:56.427Z,11.70
2019-05-11T06:41:30.607Z,11.80
2019-05-11T06:44:04.855Z,11.90
2019-05-11T06:46:38.586Z,12.00
2019-05-11T06:49:16.641Z,12.20
2019-05-11T06:51:52.529Z,12.30
2019-05-11T06:54:26.405Z,12.30
2019-05-11T06:57:16.389Z,12.20
2019-05-11T06:59:51.390Z,12.10
2019-05-11T07:02:24.802Z,12.00
2019-05-11T07:04:58.775Z,12.00
2019-05-11T07:07:48.056Z,12.00
2019-05-11T07:10:21.393Z,12.00
2019-05-11T07:12:54.751Z,12.00
2019-05-11T07:15:27.878Z,12.00
2019-05-11T07:18:02.058Z,12.00
2019-05-11T07:20:49.571Z,12.00
2019-05-11T07:23:10.611Z,12.00
2019-05-11T07:25:48.539Z,12.00
2019-05-11T07:28:25.702Z,12.00
2019-05-11T07:30:59.626Z,12.00
2019-05-11T07:33:32.612Z,12.00
2019-05-11T07:38:59.277Z,12.10
2019-05-11T07:41:34.813Z,12.20
2019-05-11T07:44:10.009Z,12.30
2019-05-11T07:46:55.391Z,12.40
2019-05-11T07:49:29.326Z,12.80
2019-05-11T07:52:02.968Z,13.20
2019-05-11T07:54:57.972Z,13.60
2019-05-11T07:57:38.729Z,13.90
2019-05-11T08:00:12.019Z,14.30
2019-05-11T08:02:50.467Z,14.40
2019-05-11T08:05:23.800Z,14.40
2019-05-11T08:07:59.295Z,14.50
2019-05-11T08:10:34.316Z,14.50
2019-05-11T08:13:11.230Z,14.60
2019-05-11T08:15:44.208Z,14.60
2019-05-11T08:18:18.906Z,14.60
2019-05-11T08:20:53.841Z,14.50
2019-05-11T08:23:28.524Z,14.50
2019-05-11T08:26:08.439Z,14.40
2019-05-11T08:28:48.619Z,14.40
2019-05-11T08:31:22.119Z,14.40
2019-05-11T08:33:58.377Z,14.40
2019-05-11T08:36:31.326Z,14.60
2019-05-11T08:39:07.748Z,14.70
2019-05-11T08:41:41.326Z,14.90
2019-05-11T08:44:14.409Z,15.10
2019-05-11T08:46:48.157Z,15.30
2019-05-11T08:49:21.391Z,15.30
2019-05-11T08:56:42.349Z,15.10
2019-05-11T08:59:18.803Z,14.90
2019-05-11T09:01:58.771Z,14.80
2019-05-11T09:04:41.807Z,14.80
2019-05-11T09:07:13.709Z,14.80
2019-05-11T09:09:48.389Z,14.80
2019-05-11T09:12:21.153Z,14.90
2019-05-11T09:14:59.362Z,15.10
2019-05-11T09:17:37.974Z,15.40
2019-05-11T09:20:11.137Z,15.80
2019-05-11T09:22:53.797Z,16.10
2019-05-11T09:25:30.126Z,16.40
2019-05-11T09:28:03.238Z,16.70
2019-05-11T09:30:51.382Z,16.90
2019-05-11T09:33:28.151Z,17.10
2019-05-11T09:36:00.757Z,17.20
2019-05-11T09:38:38.171Z,17.30
2019-05-11T09:41:12.247Z,17.20
2019-05-11T09:43:45.076Z,17.10
2019-05-11T09:46:18.868Z,16.90
2019-05-11T09:48:51.929Z,16.60
2019-05-11T09:51:25.459Z,16.40
2019-05-11T09:54:01.102Z,16.20
2019-05-11T09:56:34.970Z,16.00
2019-05-11T09:59:08.958Z,15.90
2019-05-11T10:01:42.067Z,15.70
2019-05-11T10:04:15.115Z,15.60
2019-05-11T10:06:48.197Z,15.50
2019-05-11T10:09:21.505Z,15.40
2019-05-11T10:11:54.520Z,15.50
2019-05-11T10:14:29.860Z,15.40
2019-05-11T10:17:05.118Z,15.40
2019-05-11T10:19:49.524Z,15.20
2019-05-11T10:22:39.962Z,15.10
2019-05-11T10:25:25.749Z,14.90
2019-05-11T10:28:22.031Z,14.80
2019-05-11T10:30:53.555Z,14.50
2019-05-11T10:33:30.780Z,14.10
2019-05-11T10:36:04.832Z,13.90
2019-05-11T10:38:38.500Z,13.70
2019-05-11T10:41:12.627Z,13.60
2019-05-11T10:43:45.293Z,13.60
2019-05-11T10:46:23.359Z,13.70
2019-05-11T10:48:58.528Z,13.90
2019-05-11T10:51:33.938Z,14.30
2019-05-11T10:54:08.621Z,14.60
2019-05-11T10:56:41.393Z,14.80
2019-05-11T10:59:15.677Z,15.20
2019-05-11T11:01:49.048Z,15.70
2019-05-11T11:04:22.054Z,16.10
2019-05-11T11:06:54.826Z,16.50
2019-05-11T11:09:28.357Z,16.80
2019-05-11T11:12:14.008Z,16.90
2019-05-11T11:14:52.085Z,16.90
2019-05-11T11:17:29.721Z,16.60
2019-05-11T11:20:14.791Z,16.50
2019-05-11T11:23:02.566Z,16.60
2019-05-11T11:25:48.173Z,16.70
2019-05-11T11:28:24.853Z,16.70
2019-05-11T11:31:11.482Z,16.60
2019-05-11T11:33:44.834Z,16.40
2019-05-11T11:36:18.226Z,16.20
2019-05-11T11:38:50.865Z,16.10
2019-05-11T11:41:25.145Z,16.20
2019-05-11T11:43:58.711Z,16.30
2019-05-11T11:46:50.383Z,16.70
2019-05-11T11:49:19.076Z,17.00
2019-05-11T11:52:01.703Z,17.30
2019-05-11T11:54:42.453Z,17.30
2019-05-11T11:57:15.255Z,17.20
2019-05-11T11:59:49.020Z,17.30
2019-05-11T12:02:28.049Z,17.30
2019-05-11T12:05:08.807Z,17.50
2019-05-11T12:07:44.328Z,17.80
2019-05-11T12:10:19.489Z,18.10
2019-05-11T12:12:53.952Z,18.40
2019-05-11T12:15:32.382Z,18.60
2019-05-11T12:18:05.488Z,18.80
2019-05-11T12:20:39.126Z,19.10
2019-05-11T12:23:11.873Z,19.10
2019-05-11T12:25:48.618Z,18.90
2019-05-11T12:28:21.156Z,18.60
2019-05-11T12:30:55.574Z,18.30
2019-05-11T12:33:32.131Z,18.20
2019-05-11T12:36:09.645Z,17.90
2019-05-11T12:38:43.346Z,17.70
2019-05-11T12:41:19.215Z,17.60
2019-05-11T12:43:57.670Z,17.50
2019-05-11T12:46:37.448Z,17.50
2019-05-11T12:49:18.646Z,17.60
2019-05-11T12:51:58.393Z,17.60
2019-05-11T12:54:33.910Z,17.70
2019-05-11T12:57:07.883Z,17.70
2019-05-11T13:00:00.516Z,17.70
2019-05-11T13:02:38.577Z,17.70
2019-05-11T13:05:17.827Z,17.60
2019-05-11T13:07:58.546Z,17.60
2019-05-11T13:10:33.598Z,17.70
2019-05-11T13:13:09.104Z,17.80
2019-05-11T13:15:45.132Z,18.10
2019-05-11T13:25:35.205Z,18.80
2019-05-11T13:28:12.267Z,18.70
2019-05-11T13:30:48.796Z,18.60
2019-05-11T13:33:31.352Z,18.30
2019-05-11T13:36:28.704Z,18.10
2019-05-11T13:39:08.890Z,17.90
2019-05-11T13:41:44.355Z,17.70
2019-05-11T13:44:19.171Z,17.60
2019-05-11T13:46:58.778Z,17.50
2019-05-11T13:49:32.693Z,17.50
2019-05-11T13:52:14.744Z,17.60
2019-05-11T13:54:55.142Z,17.70
2019-05-11T13:57:58.190Z,17.70
2019-05-11T14:00:38.024Z,17.60
2019-05-11T14:03:28.581Z,17.70
2019-05-11T14:06:10.134Z,17.60
2019-05-11T14:09:21.874Z,17.50
2019-05-11T14:12:15.032Z,17.50
2019-05-11T15:01:33.939Z,17.10
2019-05-11T15:05:10.549Z,16.80
2019-05-11T15:08:44.979Z,16.60
2019-05-11T15:11:28.061Z,16.30
2019-05-11T15:17:49.657Z,15.70
2019-05-11T15:24:38.553Z,15.40
2019-05-11T16:13:31.512Z,14.80
2019-05-11T16:16:04.891Z,14.80
2019-05-11T16:18:45.854Z,14.70
2019-05-11T16:21:22.199Z,14.80
2019-05-11T16:24:03.637Z,14.70
2019-05-11T16:31:21.033Z,14.70
2019-05-11T16:37:59.185Z,14.60
2019-05-11T16:43:47.985Z,14.50
2019-05-11T16:46:22.475Z,14.40
2019-05-11T17:58:26.239Z,14.00
2019-05-11T18:28:58.622Z,13.60
2019-05-11T18:31:44.639Z,13.50
2019-05-11T18:39:05.138Z,13.40
2019-05-11T18:41:45.415Z,13.30
2019-05-11T18:55:01.908Z,13.10
2019-05-11T19:02:20.525Z,13.10
2019-05-11T19:05:01.657Z,13.10
2019-05-11T19:10:51.779Z,13.00
2019-05-11T19:14:08.472Z,13.00
2019-05-11T19:17:45.057Z,13.00
